createdAt,value
2022-08-10T00:00:55.910Z,19.07
2022-08-10T00:03:22.438Z,19.07
2022-08-10T00:05:52.984Z,19.00
2022-08-10T00:08:23.659Z,18.92
2022-08-10T00:10:55.514Z,18.92
2022-08-10T00:13:25.524Z,18.93
2022-08-10T00:15:55.017Z,18.86
2022-08-10T00:18:28.907Z,18.84
2022-08-10T00:21:07.121Z,18.83
2022-08-10T00:23:34.127Z,18.69
2022-08-10T00:26:00.943Z,18.69
2022-08-10T00:28:27.590Z,18.58
2022-08-10T00:30:54.407Z,18.62
2022-08-10T00:33:21.006Z,18.48
2022-08-10T00:35:48.166Z,18.45
2022-08-10T00:38:14.706Z,18.46
2022-08-10T00:40:41.250Z,18.43
2022-08-10T00:43:07.973Z,18.42
2022-08-10T00:45:35.557Z,18.23
2022-08-10T00:48:02.035Z,18.20
2022-08-10T00:50:28.712Z,18.12
2022-08-10T00:52:55.247Z,18.14
2022-08-10T00:55:21.871Z,18.05
2022-08-10T00:57:55.143Z,18.10
2022-08-10T01:00:22.934Z,18.01
2022-08-10T01:02:49.451Z,17.89
2022-08-10T01:05:16.161Z,17.87
2022-08-10T01:07:56.645Z,17.88
2022-08-10T01:10:32.492Z,17.83
2022-08-10T01:13:06.652Z,17.74
2022-08-10T01:15:52.111Z,17.64
2022-08-10T01:18:26.451Z,17.59
2022-08-10T01:21:30.606Z,17.53
2022-08-10T01:24:26.995Z,17.39
2022-08-10T01:26:59.085Z,17.30
2022-08-10T01:29:32.125Z,17.47
2022-08-10T01:32:07.180Z,17.57
2022-08-10T01:34:54.596Z,17.55
2022-08-10T01:37:27.083Z,17.51
2022-08-10T01:39:58.532Z,17.50
2022-08-10T01:42:28.341Z,17.33
2022-08-10T01:45:02.693Z,17.25
2022-08-10T01:47:52.577Z,17.17
2022-08-10T01:50:26.955Z,17.07
2022-08-10T01:52:58.351Z,17.01
2022-08-10T01:55:26.707Z,17.05
2022-08-10T01:57:53.749Z,17.11
2022-08-10T02:00:20.664Z,17.08
2022-08-10T02:02:47.395Z,17.05
2022-08-10T02:05:15.931Z,17.02
2022-08-10T02:07:43.824Z,16.72
2022-08-10T02:10:14.541Z,16.70
2022-08-10T02:12:43.519Z,16.69
2022-08-10T02:15:16.478Z,16.73
2022-08-10T02:17:57.671Z,16.62
2022-08-10T02:20:36.632Z,16.61
2022-08-10T02:23:08.664Z,16.63
2022-08-10T02:25:40.865Z,16.56
2022-08-10T02:28:13.288Z,16.66
2022-08-10T02:30:57.682Z,16.60
2022-08-10T02:33:27.257Z,16.65
2022-08-10T02:35:56.132Z,16.52
2022-08-10T02:38:59.800Z,16.63
2022-08-10T02:45:01.233Z,16.55
2022-08-10T02:45:23.151Z,16.48
2022-08-10T02:48:03.665Z,16.48
2022-08-10T02:50:34.774Z,16.46
2022-08-10T02:53:54.934Z,16.46
2022-08-10T02:56:10.157Z,16.41
2022-08-10T02:58:44.646Z,16.36
2022-08-10T03:01:16.034Z,16.28
2022-08-10T03:03:49.707Z,16.33
2022-08-10T03:06:25.590Z,16.36
2022-08-10T03:08:54.087Z,16.24
2022-08-10T03:12:35.036Z,16.21
2022-08-10T03:14:11.952Z,16.23
2022-08-10T03:16:39.633Z,16.21
2022-08-10T03:20:35.414Z,16.18
2022-08-10T03:21:56.749Z,16.08
2022-08-10T03:24:32.535Z,15.99
2022-08-10T03:27:00.947Z,15.93
2022-08-10T03:29:28.613Z,15.87
2022-08-10T03:31:56.256Z,15.84
2022-08-10T03:34:33.304Z,15.82
2022-08-10T03:37:00.630Z,15.71
2022-08-10T03:39:27.505Z,15.70
2022-08-10T03:41:57.657Z,15.63
2022-08-10T03:44:27.440Z,15.60
2022-08-10T03:46:55.214Z,15.58
2022-08-10T03:49:23.070Z,15.62
2022-08-10T03:51:51.382Z,15.62
2022-08-10T03:54:19.115Z,15.57
2022-08-10T03:56:46.077Z,15.56
2022-08-10T03:59:14.627Z,15.53
2022-08-10T04:02:46.061Z,15.53
2022-08-10T04:04:29.595Z,15.46
2022-08-10T04:06:58.938Z,15.27
2022-08-10T04:09:42.709Z,15.19
2022-08-10T04:12:14.292Z,15.19
2022-08-10T04:14:51.198Z,15.35
2022-08-10T04:18:03.939Z,15.29
2022-08-10T04:20:34.205Z,15.31
2022-08-10T04:23:06.782Z,15.34
2022-08-10T04:25:34.412Z,15.44
2022-08-10T04:28:01.303Z,15.36
2022-08-10T04:30:31.424Z,15.33
2022-08-10T04:32:59.692Z,15.36
2022-08-10T04:35:28.834Z,15.48
2022-08-10T04:37:57.081Z,15.42
2022-08-10T04:40:29.792Z,15.41
2022-08-10T04:43:07.497Z,15.39
2022-08-10T04:45:49.042Z,15.43
2022-08-10T04:48:43.092Z,15.57
2022-08-10T04:51:05.900Z,15.69
2022-08-10T04:53:32.345Z,15.63
2022-08-10T04:55:58.809Z,15.70
2022-08-10T04:58:25.247Z,15.75
2022-08-10T05:00:51.742Z,15.80
2022-08-10T05:03:18.228Z,15.94
2022-08-10T05:05:44.637Z,16.01
2022-08-10T05:08:11.053Z,16.11
2022-08-10T05:10:37.503Z,16.27
2022-08-10T05:13:03.923Z,16.41
2022-08-10T05:15:30.379Z,16.59
2022-08-10T05:18:08.799Z,16.74
2022-08-10T05:20:38.881Z,17.02
2022-08-10T05:23:05.329Z,17.27
2022-08-10T05:25:32.485Z,17.53
2022-08-10T05:28:06.461Z,17.66
2022-08-10T05:30:34.128Z,18.00
2022-08-10T05:33:04.942Z,18.05
2022-08-10T05:35:55.187Z,18.22
2022-08-10T05:38:22.797Z,18.50
2022-08-10T05:40:50.185Z,18.70
2022-08-10T05:43:19.247Z,18.84
2022-08-10T05:46:18.083Z,18.95
2022-08-10T05:48:41.956Z,19.16
2022-08-10T05:51:20.891Z,19.01
2022-08-10T05:54:02.863Z,19.21
2022-08-10T05:56:56.982Z,19.47
2022-08-10T06:00:34.973Z,19.41
2022-08-10T06:02:41.136Z,19.43
2022-08-10T06:04:56.820Z,19.70
2022-08-10T06:07:27.282Z,20.18
2022-08-10T06:10:00.055Z,20.44
2022-08-10T06:12:31.315Z,21.03
2022-08-10T06:15:05.840Z,21.44
2022-08-10T06:17:37.224Z,21.59
2022-08-10T06:20:04.448Z,21.74
2022-08-10T06:22:34.121Z,22.02
2022-08-10T06:25:37.806Z,22.30
2022-08-10T06:27:50.653Z,22.40
2022-08-10T06:30:20.870Z,22.73
2022-08-10T06:32:51.190Z,22.90
2022-08-10T06:35:18.942Z,23.03
2022-08-10T06:37:51.569Z,22.93
2022-08-10T06:40:19.485Z,22.89
2022-08-10T06:42:50.774Z,23.20
2022-08-10T06:45:19.966Z,23.44
2022-08-10T06:47:55.774Z,23.74
2022-08-10T06:50:56.395Z,23.77
2022-08-10T06:53:53.289Z,24.09
2022-08-10T06:56:36.575Z,24.42
2022-08-10T06:59:21.190Z,24.61
2022-08-10T07:01:53.150Z,24.53
2022-08-10T07:04:32.567Z,24.36
2022-08-10T07:07:04.326Z,24.66
2022-08-10T07:09:35.009Z,24.84
2022-08-10T07:12:07.552Z,25.03
2022-08-10T07:14:42.592Z,25.38
2022-08-10T07:17:15.136Z,25.45
2022-08-10T07:19:50.022Z,25.64
2022-08-10T07:23:22.891Z,25.35
2022-08-10T07:25:12.115Z,25.43
2022-08-10T07:28:00.129Z,25.54
2022-08-10T07:30:30.403Z,25.47
2022-08-10T07:32:57.814Z,25.72
2022-08-10T07:35:26.995Z,25.69
2022-08-10T07:37:54.546Z,25.55
2022-08-10T07:40:22.236Z,25.65
2022-08-10T07:42:53.610Z,25.57
2022-08-10T07:45:20.311Z,25.64
2022-08-10T07:48:17.207Z,25.58
2022-08-10T07:50:46.180Z,25.62
2022-08-10T07:53:20.349Z,25.71
2022-08-10T07:56:03.663Z,25.80
2022-08-10T07:58:52.611Z,26.01
2022-08-10T08:01:21.699Z,26.07
2022-08-10T08:04:05.885Z,25.85
2022-08-10T08:06:36.752Z,26.05
2022-08-10T08:09:04.532Z,26.08
2022-08-10T08:11:32.367Z,26.60
2022-08-10T08:14:00.377Z,26.59
2022-08-10T08:16:27.118Z,26.61
2022-08-10T08:19:23.962Z,26.42
2022-08-10T08:24:06.315Z,26.25
2022-08-10T08:24:34.451Z,26.54
2022-08-10T08:27:03.230Z,26.75
2022-08-10T08:29:34.351Z,26.62
2022-08-10T08:32:03.699Z,26.67
2022-08-10T08:34:32.623Z,27.06
2022-08-10T08:37:00.895Z,26.91
2022-08-10T08:39:27.538Z,27.06
2022-08-10T08:41:59.154Z,27.25
2022-08-10T08:45:00.588Z,27.04
2022-08-10T08:48:02.368Z,27.23
2022-08-10T08:50:37.214Z,27.43
2022-08-10T08:54:01.571Z,27.07
2022-08-10T08:56:28.462Z,27.17
2022-08-10T08:59:23.330Z,27.26
2022-08-10T09:02:27.805Z,27.00
2022-08-10T09:05:23.603Z,27.21
2022-08-10T09:08:06.081Z,26.97
2022-08-10T09:10:52.595Z,27.23
2022-08-10T09:13:27.225Z,27.67
2022-08-10T09:16:03.648Z,28.00
2022-08-10T09:18:54.971Z,28.12
2022-08-10T09:22:13.501Z,28.23
2022-08-10T09:24:46.252Z,28.33
2022-08-10T09:27:26.671Z,28.34
2022-08-10T09:30:00.303Z,28.36
2022-08-10T09:36:13.758Z,28.54
2022-08-10T09:36:23.359Z,28.63
2022-08-10T09:40:12.435Z,28.80
2022-08-10T09:42:28.850Z,28.78
2022-08-10T09:45:14.795Z,28.76
2022-08-10T09:48:01.064Z,28.59
2022-08-10T09:51:34.505Z,28.74
2022-08-10T09:53:50.123Z,28.56
2022-08-10T09:56:48.366Z,28.44
2022-08-10T10:00:01.929Z,28.87
2022-08-10T10:02:32.068Z,29.37
2022-08-10T10:05:21.709Z,29.14
2022-08-10T10:08:02.987Z,28.78
2022-08-10T10:10:47.455Z,28.71
2022-08-10T10:13:41.738Z,28.61
2022-08-10T10:16:24.148Z,28.53
2022-08-10T10:19:27.692Z,28.95
2022-08-10T10:22:17.707Z,28.70
2022-08-10T10:25:19.845Z,29.30
2022-08-10T10:28:05.734Z,29.29
2022-08-10T10:30:39.447Z,29.18
2022-08-10T10:33:14.902Z,29.65
2022-08-10T10:35:52.347Z,29.63
2022-08-10T10:38:23.262Z,29.36
2022-08-10T10:40:54.715Z,29.16
2022-08-10T10:43:39.864Z,29.10
2022-08-10T10:46:12.147Z,29.04
2022-08-10T10:49:01.974Z,29.31
2022-08-10T10:51:34.955Z,29.23
2022-08-10T10:54:10.649Z,29.13
2022-08-10T10:56:56.994Z,29.20
2022-08-10T10:59:55.181Z,29.02
2022-08-10T11:02:51.650Z,29.02
2022-08-10T11:05:26.911Z,29.05
2022-08-10T11:08:01.068Z,29.48
2022-08-10T11:10:35.227Z,29.62
2022-08-10T11:14:27.498Z,30.03
2022-08-10T11:16:24.576Z,29.40
2022-08-10T11:19:13.839Z,29.27
2022-08-10T11:22:11.340Z,29.52
2022-08-10T11:25:01.732Z,29.61
2022-08-10T11:27:48.716Z,29.87
2022-08-10T11:30:20.266Z,30.20
2022-08-10T11:33:32.457Z,30.21
2022-08-10T11:36:08.708Z,30.38
2022-08-10T11:39:14.109Z,30.54
2022-08-10T11:42:07.983Z,30.77
2022-08-10T11:44:43.575Z,30.16
2022-08-10T11:47:23.175Z,30.07
2022-08-10T11:49:58.478Z,29.94
2022-08-10T11:52:24.912Z,29.89
2022-08-10T11:54:55.121Z,30.17
2022-08-10T11:57:53.185Z,30.29
2022-08-10T12:00:16.049Z,30.47
2022-08-10T12:02:49.272Z,30.50
2022-08-10T12:05:21.350Z,30.72
2022-08-10T12:08:54.850Z,31.16
2022-08-10T12:10:41.027Z,30.81
2022-08-10T12:13:26.167Z,30.50
2022-08-10T12:16:08.903Z,30.91
2022-08-10T12:18:46.974Z,31.31
2022-08-10T12:21:22.438Z,31.20
2022-08-10T12:24:08.505Z,30.73
2022-08-10T12:26:49.784Z,30.52
2022-08-10T12:29:57.972Z,30.50
2022-08-10T12:32:50.343Z,30.62
2022-08-10T12:35:22.838Z,30.36
2022-08-10T12:38:14.141Z,30.74
2022-08-10T12:40:48.452Z,31.25
2022-08-10T12:44:04.524Z,30.98
2022-08-10T12:46:26.118Z,30.98
2022-08-10T12:49:19.813Z,30.87
2022-08-10T12:52:00.098Z,31.20
2022-08-10T12:54:33.870Z,31.41
2022-08-10T12:57:05.472Z,31.47
2022-08-10T12:59:33.551Z,31.96
2022-08-10T13:02:14.702Z,32.38
2022-08-10T13:04:43.040Z,32.58
2022-08-10T13:07:10.438Z,32.77
2022-08-10T13:10:26.036Z,32.81
2022-08-10T13:12:57.516Z,33.11
2022-08-10T13:15:48.798Z,33.26
2022-08-10T13:18:18.278Z,33.12
2022-08-10T13:20:50.576Z,32.80
2022-08-10T13:23:24.857Z,31.66
2022-08-10T13:25:54.003Z,31.41
2022-08-10T13:28:37.800Z,31.35
2022-08-10T13:31:11.441Z,31.13
2022-08-10T13:34:36.604Z,31.50
2022-08-10T13:36:40.111Z,30.87
2022-08-10T13:39:08.184Z,31.30
2022-08-10T13:41:40.432Z,32.08
2022-08-10T13:44:09.574Z,31.85
2022-08-10T13:46:40.402Z,31.76
2022-08-10T13:49:08.414Z,31.74
2022-08-10T13:51:57.012Z,32.52
2022-08-10T13:54:26.680Z,32.11
2022-08-10T13:56:55.677Z,31.76
2022-08-10T13:59:26.624Z,31.91
2022-08-10T14:02:17.418Z,31.94
2022-08-10T14:04:46.200Z,32.32
2022-08-10T14:07:14.533Z,31.58
2022-08-10T14:09:41.700Z,32.24
2022-08-10T14:12:10.372Z,32.64
2022-08-10T14:14:38.826Z,32.90
2022-08-10T14:17:07.249Z,33.01
2022-08-10T14:19:43.228Z,33.24
2022-08-10T14:22:16.990Z,33.30
2022-08-10T14:24:46.702Z,33.50
2022-08-10T14:27:16.560Z,33.37
2022-08-10T14:29:49.661Z,33.12
2022-08-10T14:32:21.472Z,33.40
2022-08-10T14:36:16.375Z,33.51
2022-08-10T14:37:40.006Z,33.15
2022-08-10T14:40:11.685Z,33.37
2022-08-10T14:42:47.055Z,33.39
2022-08-10T14:45:21.230Z,32.94
2022-08-10T14:47:53.906Z,33.00
2022-08-10T14:50:31.774Z,33.08
2022-08-10T14:53:09.256Z,33.24
2022-08-10T14:55:58.646Z,33.02
2022-08-10T14:58:31.163Z,33.23
2022-08-10T15:00:58.551Z,33.29
2022-08-10T15:04:01.734Z,33.44
2022-08-10T15:06:20.514Z,33.46
2022-08-10T15:09:12.661Z,33.60
2022-08-10T15:12:13.858Z,33.59
2022-08-10T15:14:43.118Z,33.29
2022-08-10T15:17:13.592Z,33.01
2022-08-10T15:20:02.231Z,31.86
2022-08-10T15:22:39.199Z,31.72
2022-08-10T15:25:19.315Z,31.83
2022-08-10T15:28:13.155Z,31.81
2022-08-10T15:30:45.907Z,31.63
2022-08-10T15:34:01.970Z,31.03
2022-08-10T15:36:44.953Z,31.04
2022-08-10T15:40:25.915Z,31.73
2022-08-10T15:42:26.231Z,31.89
2022-08-10T15:44:54.930Z,30.89
2022-08-10T15:47:26.644Z,30.97
2022-08-10T15:50:06.820Z,31.36
2022-08-10T15:53:00.879Z,31.76
2022-08-10T15:55:47.693Z,31.95
2022-08-10T15:58:55.789Z,32.05
2022-08-10T16:02:14.678Z,32.05
2022-08-10T16:04:47.499Z,32.12
2022-08-10T16:07:19.432Z,32.06
2022-08-10T16:10:26.831Z,32.14
2022-08-10T16:13:00.160Z,31.49
2022-08-10T16:15:29.081Z,31.16
2022-08-10T16:18:16.539Z,31.54
2022-08-10T16:20:55.210Z,31.65
2022-08-10T16:23:29.871Z,31.65
2022-08-10T16:26:01.828Z,31.54
2022-08-10T16:28:36.870Z,31.33
2022-08-10T16:31:12.561Z,31.30
2022-08-10T16:33:53.657Z,31.25
2022-08-10T16:36:21.943Z,31.24
2022-08-10T16:38:50.186Z,31.46
2022-08-10T16:41:52.097Z,31.36
2022-08-10T16:44:10.168Z,31.36
2022-08-10T16:46:42.361Z,31.31
2022-08-10T16:49:09.963Z,31.18
2022-08-10T16:51:37.940Z,31.25
2022-08-10T16:54:06.912Z,30.82
2022-08-10T16:56:49.328Z,30.73
2022-08-10T16:59:20.664Z,30.63
2022-08-10T17:01:51.645Z,30.74
2022-08-10T17:04:23.453Z,30.81
2022-08-10T17:07:03.792Z,30.77
2022-08-10T17:09:33.076Z,30.57
2022-08-10T17:12:05.638Z,30.56
2022-08-10T17:14:32.159Z,30.62
2022-08-10T17:17:04.368Z,30.45
2022-08-10T17:19:39.375Z,30.45
2022-08-10T17:22:12.819Z,30.40
2022-08-10T17:24:45.367Z,30.36
2022-08-10T17:28:05.447Z,30.31
2022-08-10T17:30:04.805Z,30.17
2022-08-10T17:32:49.686Z,30.04
2022-08-10T17:35:23.461Z,29.96
2022-08-10T17:38:00.474Z,29.86
2022-08-10T17:40:28.535Z,29.78
2022-08-10T17:42:55.911Z,29.73
2022-08-10T17:45:47.028Z,29.68
2022-08-10T17:48:12.693Z,29.45
2022-08-10T17:50:42.746Z,29.36
2022-08-10T17:53:20.247Z,29.27
2022-08-10T17:55:49.248Z,29.18
2022-08-10T17:58:18.165Z,29.13
2022-08-10T18:00:51.044Z,29.06
2022-08-10T18:03:25.196Z,28.82
2022-08-10T18:05:59.756Z,28.71
2022-08-10T18:08:29.370Z,28.51
2022-08-10T18:10:57.953Z,28.39
2022-08-10T18:13:27.512Z,28.31
2022-08-10T18:16:15.529Z,28.17
2022-08-10T18:18:41.968Z,28.03
2022-08-10T18:21:15.781Z,27.92
2022-08-10T18:23:44.409Z,27.80
2022-08-10T18:26:22.896Z,27.69
2022-08-10T18:28:55.566Z,27.45
2022-08-10T18:31:25.312Z,27.28
2022-08-10T18:33:55.580Z,27.19
2022-08-10T18:36:23.856Z,27.08
2022-08-10T18:38:53.412Z,27.05
2022-08-10T18:41:26.599Z,26.82
2022-08-10T18:44:10.287Z,26.67
2022-08-10T18:46:46.021Z,26.53
2022-08-10T18:49:30.045Z,26.42
2022-08-10T18:52:00.502Z,26.21
2022-08-10T18:54:43.803Z,26.04
2022-08-10T18:57:36.098Z,25.59
2022-08-10T19:00:13.182Z,25.62
2022-08-10T19:03:10.081Z,25.43
2022-08-10T19:05:58.132Z,25.21
2022-08-10T19:08:49.199Z,25.23
2022-08-10T19:12:04.970Z,24.86
2022-08-10T19:15:06.924Z,24.81
2022-08-10T19:18:05.970Z,24.72
2022-08-10T19:21:08.906Z,24.62
2022-08-10T19:23:54.245Z,24.40
2022-08-10T19:26:44.536Z,24.30
2022-08-10T19:30:01.033Z,24.07
2022-08-10T19:32:27.357Z,23.96
2022-08-10T19:35:31.520Z,23.88
2022-08-10T19:38:16.764Z,23.78
2022-08-10T19:41:09.339Z,23.63
2022-08-10T19:44:00.047Z,23.59
2022-08-10T19:46:37.607Z,23.49
2022-08-10T19:49:17.428Z,23.47
2022-08-10T19:52:19.599Z,23.38
2022-08-10T19:55:04.436Z,23.24
2022-08-10T19:57:37.610Z,23.12
2022-08-10T20:00:19.430Z,22.89
2022-08-10T20:03:13.128Z,22.70
2022-08-10T20:06:18.181Z,22.62
2022-08-10T20:08:46.128Z,22.61
2022-08-10T20:11:44.766Z,22.42
2022-08-10T20:14:22.974Z,22.31
2022-08-10T20:16:56.283Z,22.30
2022-08-10T20:19:22.744Z,22.21
2022-08-10T20:22:04.624Z,22.16
2022-08-10T20:24:38.846Z,22.14
2022-08-10T20:27:57.651Z,22.09
2022-08-10T20:30:04.879Z,22.04
2022-08-10T20:33:02.915Z,22.04
2022-08-10T20:36:00.093Z,22.07
2022-08-10T20:38:34.180Z,22.08
2022-08-10T20:41:03.392Z,22.10
2022-08-10T20:43:41.610Z,22.27
2022-08-10T20:46:17.199Z,22.34
2022-08-10T20:48:56.363Z,22.38
2022-08-10T20:51:58.990Z,22.34
2022-08-10T20:54:17.590Z,22.45
2022-08-10T20:57:54.526Z,22.55
2022-08-10T21:00:09.913Z,22.57
2022-08-10T21:03:21.306Z,22.43
2022-08-10T21:06:08.986Z,22.49
2022-08-10T21:08:50.801Z,22.54
2022-08-10T21:11:55.022Z,22.56
2022-08-10T21:14:50.941Z,22.47
2022-08-10T21:17:53.518Z,22.51
2022-08-10T21:20:47.213Z,22.44
2022-08-10T21:23:16.724Z,22.44
2022-08-10T21:26:07.452Z,22.37
2022-08-10T21:28:49.996Z,22.37
2022-08-10T21:31:48.142Z,22.33
2022-08-10T21:34:35.179Z,22.34
2022-08-10T21:37:39.821Z,22.28
2022-08-10T21:40:34.494Z,22.30
2022-08-10T21:43:44.389Z,22.20
2022-08-10T21:46:55.251Z,22.20
2022-08-10T21:50:18.123Z,22.14
2022-08-10T21:53:45.025Z,22.08
2022-08-10T21:56:47.762Z,22.05
2022-08-10T21:59:56.638Z,22.01
2022-08-10T22:02:52.565Z,22.01
2022-08-10T22:05:47.907Z,21.99
2022-08-10T22:08:37.476Z,21.97
2022-08-10T22:11:26.716Z,21.89
2022-08-10T22:14:12.859Z,21.85
2022-08-10T22:18:00.266Z,21.73
2022-08-10T22:20:27.158Z,21.65
2022-08-10T22:23:34.633Z,21.61
2022-08-10T22:26:40.190Z,21.62
2022-08-10T22:29:42.348Z,21.60
2022-08-10T22:32:41.965Z,21.63
2022-08-10T22:36:04.900Z,21.64
2022-08-10T22:40:10.995Z,21.65
2022-08-10T22:42:59.299Z,21.59
2022-08-10T22:45:40.656Z,21.54
2022-08-10T22:48:26.003Z,21.48
2022-08-10T22:50:56.793Z,21.48
2022-08-10T22:54:08.335Z,21.34
2022-08-10T22:56:58.100Z,21.34
2022-08-10T22:59:32.387Z,21.29
2022-08-10T23:02:18.774Z,21.31
2022-08-10T23:04:51.387Z,21.30
2022-08-10T23:07:17.747Z,21.29
2022-08-10T23:09:49.465Z,21.20
2022-08-10T23:12:20.977Z,21.15
2022-08-10T23:15:00.066Z,21.15
2022-08-10T23:18:01.891Z,21.12
2022-08-10T23:20:30.301Z,21.11
2022-08-10T23:23:04.744Z,21.02
2022-08-10T23:25:56.793Z,21.00
2022-08-10T23:28:38.938Z,20.90
2022-08-10T23:31:14.458Z,20.83
2022-08-10T23:33:42.618Z,20.85
2022-08-10T23:36:34.577Z,20.74
2022-08-10T23:39:25.796Z,20.63
2022-08-10T23:41:56.190Z,20.55
2022-08-10T23:44:24.703Z,20.54
2022-08-10T23:46:51.663Z,20.47
2022-08-10T23:49:19.911Z,20.51
2022-08-10T23:51:55.396Z,20.29
2022-08-10T23:54:24.769Z,20.24
2022-08-10T23:56:54.288Z,20.09
2022-08-10T23:59:23.569Z,19.99
